Time;durP1;ratioP1;P1;durP2;ratioP2;P2;SDS_P1;SDS_P2;PMS_P1;PMS_P2;Temp;Humidity;BMP_temperature;BMP_pressure;BME280_temperature;BME280_humidity;BME280_pressure;Samples;Min_cycle;Max_cycle;Signal;HPM_P1;HPM_P2
2022/12/18 00:04:29;;;;;;;47.22;20.85;;;;;;;4.57;100.00;101199.97;10583112;28;20410;-72
2022/12/18 00:09:30;;;;;;;36.25;18.55;;;;;;;5.13;100.00;101293.47;10583844;28;20039;-72
2022/12/18 00:14:31;;;;;;;46.08;20.60;;;;;;;5.01;100.00;101269.69;10584094;28;20054;-71
2022/12/18 00:19:32;;;;;;;45.47;19.88;;;;;;;5.22;100.00;101298.09;10583426;28;20052;-72
2022/12/18 00:24:32;;;;;;;47.72;21.67;;;;;;;4.57;100.00;101199.97;10583337;28;20040;-72
2022/12/18 00:29:33;;;;;;;41.45;21.02;;;;;;;5.02;100.00;101271.38;10583796;28;20384;-71
2022/12/18 00:34:34;;;;;;;40.10;20.38;;;;;;;4.51;100.00;101200.41;10582931;28;20414;-71
2022/12/18 00:39:35;;;;;;;49.47;21.00;;;;;;;4.74;100.00;101216.38;10582544;28;20100;-71
2022/12/18 00:44:36;;;;;;;54.10;21.60;;;;;;;5.09;100.00;101255.16;10564779;28;20035;-72
2022/12/18 00:49:36;;;;;;;43.88;20.05;;;;;;;5.22;100.00;101282.28;10583085;28;20066;-71
2022/12/18 00:54:37;;;;;;;47.28;21.25;;;;;;;5.03;100.00;101236.19;10582769;28;20035;-71
2022/12/18 00:59:38;;;;;;;50.38;21.95;;;;;;;5.01;100.00;101206.50;10581942;28;20043;-71
2022/12/18 01:04:39;;;;;;;57.38;23.17;;;;;;;4.85;100.00;101176.13;10581606;28;20525;-71
2022/12/18 01:09:39;;;;;;;53.30;22.35;;;;;;;4.59;100.00;101134.09;10581484;28;20036;-71
2022/12/18 01:14:40;;;;;;;46.47;22.88;;;;;;;5.13;100.00;101243.44;10581983;28;20032;-72
2022/12/18 01:19:41;;;;;;;44.65;21.50;;;;;;;4.77;100.00;101176.66;10563658;28;20399;-71
2022/12/18 01:24:42;;;;;;;49.00;23.98;;;;;;;5.00;100.00;101217.16;10581508;28;20036;-71
2022/12/18 01:29:43;;;;;;;46.75;21.40;;;;;;;5.16;100.00;101230.03;10580473;28;20407;-71
2022/12/18 01:34:44;;;;;;;45.88;21.23;;;;;;;5.23;100.00;101250.56;10581015;28;20047;-71
2022/12/18 01:39:44;;;;;;;47.97;23.23;;;;;;;5.26;100.00;101239.81;10580666;28;20044;-71
2022/12/18 01:45:02;;;;;;;46.30;21.63;;;;;;;5.28;100.00;101244.94;10581725;28;20392;-71
2022/12/18 01:50:08;;;;;;;37.22;18.92;;;;;;;5.17;100.00;101223.81;10580506;28;20055;-71
2022/12/18 01:55:12;;;;;;;39.92;19.02;;;;;;;5.21;100.00;101247.19;10580100;28;20039;-71
2022/12/18 02:00:21;;;;;;;41.17;18.85;;;;;;;5.21;100.00;101247.19;10580431;28;20043;-71
2022/12/18 02:05:57;;;;;;;35.70;18.92;;;;;;;5.09;100.00;101211.22;10579748;28;20154;-71
2022/12/18 02:10:58;;;;;;;35.08;18.75;;;;;;;5.19;100.00;101243.81;10570996;28;20055;-71
2022/12/18 02:16:24;;;;;;;37.05;18.20;;;;;;;4.72;100.00;101150.66;10580310;28;20035;-71
2022/12/18 02:21:40;;;;;;;38.42;18.27;;;;;;;5.25;100.00;101238.09;10579639;28;20518;-71
2022/12/18 02:26:50;;;;;;;36.33;19.08;;;;;;;5.24;100.00;101222.44;10578863;28;20160;-71
2022/12/18 02:31:55;;;;;;;33.08;17.90;;;;;;;5.25;100.00;101232.84;10601501;27;20048;-70
2022/12/18 02:36:59;;;;;;;36.90;18.85;;;;;;;5.06;100.00;101202.69;10587991;28;20513;-70
2022/12/18 02:42:02;;;;;;;37.83;17.75;;;;;;;4.95;100.00;101192.94;10570001;28;20051;-71
2022/12/18 02:47:03;;;;;;;40.42;19.55;;;;;;;4.67;100.00;101154.59;10570230;28;20063;-70
2022/12/18 02:52:09;;;;;;;37.65;17.95;;;;;;;5.23;100.00;101240.03;10587563;28;20032;-71
2022/12/18 02:57:29;;;;;;;39.22;18.98;;;;;;;4.83;100.00;101157.81;10587500;28;20399;-71
2022/12/18 03:02:51;;;;;;;41.30;20.67;;;;;;;5.29;100.00;101222.91;10568275;28;20100;-70
2022/12/18 03:08:00;;;;;;;36.65;18.60;;;;;;;4.90;100.00;101171.34;10586402;28;20047;-71
2022/12/18 03:13:09;;;;;;;43.65;19.42;;;;;;;4.79;100.00;101137.94;10586637;28;20042;-70
2022/12/18 03:18:19;;;;;;;42.40;20.23;;;;;;;4.88;100.00;101137.25;10586044;28;20558;-71
2022/12/18 03:23:27;;;;;;;39.88;19.55;;;;;;;5.26;100.00;101202.06;10586947;28;20061;-70
2022/12/18 03:28:32;;;;;;;47.63;20.98;;;;;;;5.30;100.00;101208.81;10585531;28;20047;-71
2022/12/18 03:33:45;;;;;;;;;;;;;;;5.51;100.00;101216.09;10568308;28;20040;-70
2022/12/18 03:38:47;;;;;;;41.30;19.48;;;;;;;5.36;100.00;101211.00;10585484;28;19916;-71
2022/12/18 03:43:58;;;;;;;44.72;21.25;;;;;;;5.41;100.00;101222.00;10584907;28;20040;-70
2022/12/18 03:49:08;;;;;;;36.05;19.42;;;;;;;5.49;100.00;101235.47;10584865;28;20116;-70
2022/12/18 03:54:11;;;;;;;40.63;19.63;;;;;;;5.38;100.00;101222.22;10584587;28;20075;-71
2022/12/18 03:59:14;;;;;;;47.80;21.02;;;;;;;5.46;100.00;101240.13;10584900;28;20032;-70
2022/12/18 04:04:17;;;;;;;47.33;19.35;;;;;;;5.37;100.00;101225.84;10584168;28;20101;-70
2022/12/18 04:09:19;;;;;;;40.58;20.27;;;;;;;5.18;100.00;101194.75;10584393;28;20048;-70
2022/12/18 04:14:20;;;;;;;41.25;18.88;;;;;;;5.39;100.00;101223.94;10583689;28;20486;-70
2022/12/18 04:19:21;;;;;;;42.10;19.63;;;;;;;5.57;100.00;101252.53;10565674;28;20039;-70
2022/12/18 04:24:21;;;;;;;34.63;18.27;;;;;;;5.36;100.00;101207.53;10583174;28;20521;-71
2022/12/18 04:29:22;;;;;;;46.88;19.95;;;;;;;5.57;100.00;101244.63;10583528;28;20122;-71
2022/12/18 04:34:23;;;;;;;46.28;21.67;;;;;;;5.13;100.00;101177.59;10584245;28;20072;-71
2022/12/18 04:39:24;;;;;;;41.53;20.40;;;;;;;5.27;100.00;101195.88;10583241;28;20044;-70
2022/12/18 04:44:25;;;;;;;43.78;19.80;;;;;;;4.68;100.00;101101.84;10583243;28;20510;-71
2022/12/18 04:49:26;;;;;;;42.55;18.98;;;;;;;5.49;100.00;101234.63;10583491;28;20055;-71
2022/12/18 04:54:26;;;;;;;39.75;18.88;;;;;;;5.23;100.00;101173.31;10582612;28;20046;-70
2022/12/18 04:59:27;;;;;;;35.25;17.73;;;;;;;5.51;100.00;101221.34;10582385;28;20040;-70
2022/12/18 05:04:28;;;;;;;40.55;20.02;;;;;;;5.49;100.00;101218.81;10582240;28;20404;-71
2022/12/18 05:09:29;;;;;;;39.28;18.58;;;;;;;5.67;100.00;101258.78;10563957;28;20044;-71
2022/12/18 05:14:30;;;;;;;40.00;19.75;;;;;;;5.13;100.00;101167.88;10581545;28;20130;-70
2022/12/18 05:19:30;;;;;;;42.45;18.95;;;;;;;5.61;100.00;101243.44;10581193;28;20050;-70
2022/12/18 05:24:31;;;;;;;41.75;18.45;;;;;;;4.73;100.00;101110.25;10581475;28;20126;-71
2022/12/18 05:29:32;;;;;;;36.58;17.88;;;;;;;5.61;100.00;101260.09;10580654;28;20040;-71
2022/12/18 05:34:33;;;;;;;34.42;17.60;;;;;;;5.13;100.00;101172.31;10562463;28;20047;-71
2022/12/18 05:39:34;;;;;;;34.97;18.02;;;;;;;5.56;100.00;101233.22;10563069;28;20120;-70
2022/12/18 05:44:35;;;;;;;35.92;18.48;;;;;;;5.67;100.00;101241.16;10562602;28;20065;-71
2022/12/18 05:49:35;;;;;;;37.95;17.33;;;;;;;5.57;100.00;101215.63;10579536;28;20059;-70
2022/12/18 05:54:36;;;;;;;34.50;15.52;;;;;;;5.04;100.00;101131.69;10542806;27;21024;-70
2022/12/18 05:59:37;;;;;;;25.73;14.30;;;;;;;5.51;100.00;101226.63;10562073;27;20047;-71
2022/12/18 06:04:38;;;;;;;29.65;15.80;;;;;;;5.49;100.00;101209.13;10588230;27;20050;-72
2022/12/18 06:09:39;;;;;;;37.00;16.60;;;;;;;5.62;100.00;101216.94;10584536;27;20040;-70
2022/12/18 06:14:40;;;;;;;35.60;17.65;;;;;;;5.54;100.00;101192.97;10572269;27;20414;-71
2022/12/18 06:19:40;;;;;;;38.60;17.50;;;;;;;5.63;100.00;101207.25;10589501;27;20138;-71
2022/12/18 06:24:41;;;;;;;32.65;16.80;;;;;;;5.70;100.00;101216.38;10586032;27;21220;-72
2022/12/18 06:29:42;;;;;;;32.17;14.85;;;;;;;5.72;100.00;101217.94;10582846;28;20047;-71
2022/12/18 06:34:42;;;;;;;32.05;15.82;;;;;;;5.70;100.00;101242.75;10587051;28;20043;-71
2022/12/18 06:39:43;;;;;;;32.67;16.50;;;;;;;5.71;100.00;101249.69;10537747;28;20492;-70
2022/12/18 06:44:44;;;;;;;26.95;15.07;;;;;;;5.25;100.00;101171.41;10537574;28;20138;-71
2022/12/18 06:49:45;;;;;;;30.60;15.77;;;;;;;5.79;100.00;101234.16;10536156;28;20138;-72
2022/12/18 06:54:45;;;;;;;30.48;15.88;;;;;;;5.92;100.00;101249.88;10536959;28;20500;-72
2022/12/18 06:59:46;;;;;;;30.60;15.38;;;;;;;5.94;100.00;101246.19;10536780;28;20042;-71
2022/12/18 07:04:50;;;;;;;31.83;15.40;;;;;;;5.86;100.00;101240.66;10536250;28;20492;-71
2022/12/18 07:09:51;;;;;;;25.50;14.80;;;;;;;5.78;100.00;101248.28;10536650;28;20125;-71
2022/12/18 07:14:51;;;;;;;27.25;15.13;;;;;;;4.78;100.00;101073.06;10539115;28;20032;-71
2022/12/18 07:19:52;;;;;;;30.92;15.93;;;;;;;5.78;100.00;101221.94;10543754;28;20463;-71
2022/12/18 07:24:53;;;;;;;29.60;14.95;;;;;;;5.44;100.00;101137.50;10558117;27;20043;-72
2022/12/18 07:29:54;;;;;;;26.65;13.82;;;;;;;5.78;100.00;101179.75;10568132;28;20047;-71
2022/12/18 07:34:55;;;;;;;25.88;13.57;;;;;;;6.19;100.00;101217.94;10579101;27;20039;-71
2022/12/18 07:39:56;;;;;;;25.17;12.85;;;;;;;6.21;100.00;101220.47;10627824;27;20039;-71
2022/12/18 07:45:01;;;;;;;24.13;12.68;;;;;;;6.25;100.00;101217.50;10625079;27;20027;-69
2022/12/18 07:50:03;;;;;;;24.45;12.90;;;;;;;6.33;100.00;101233.56;10586404;27;20051;-69
2022/12/18 07:55:05;;;;;;;22.40;12.52;;;;;;;5.69;100.00;101125.91;10579662;28;20040;-69
2022/12/18 08:00:06;;;;;;;21.25;11.85;;;;;;;6.26;100.00;101210.41;10552929;28;20040;-70
2022/12/18 08:05:07;;;;;;;19.70;11.98;;;;;;;6.25;100.00;101188.47;10579063;28;20119;-70
2022/12/18 08:10:08;;;;;;;23.65;13.60;;;;;;;6.43;100.00;101201.16;10586372;27;20055;-70
2022/12/18 08:15:09;;;;;;;22.20;12.95;;;;;;;6.39;100.00;101201.41;10579319;28;20050;-69
2022/12/18 08:20:11;;;;;;;22.75;12.38;;;;;;;6.38;100.00;101180.44;10595132;27;20043;-69
2022/12/18 08:25:11;;;;;;;18.83;11.73;;;;;;;6.46;100.00;101208.84;10607885;27;20046;-70
2022/12/18 08:30:12;;;;;;;23.42;12.55;;;;;;;5.99;100.00;101123.72;10581688;27;20480;-70
2022/12/18 08:35:13;;;;;;;23.00;12.68;;;;;;;6.53;100.00;101188.94;10579307;27;20031;-69
2022/12/18 08:40:14;;;;;;;22.95;11.45;;;;;;;6.55;100.00;101171.16;10592887;27;20039;-69
2022/12/18 08:45:16;;;;;;;17.92;10.88;;;;;;;6.00;100.00;101077.91;10583061;28;20403;-69
2022/12/18 08:50:17;;;;;;;19.73;11.75;;;;;;;6.37;100.00;101147.06;10589874;27;20055;-71
2022/12/18 08:55:18;;;;;;;20.38;11.30;;;;;;;6.50;100.00;101146.97;10580746;27;20100;-73
2022/12/18 09:00:19;;;;;;;19.05;10.20;;;;;;;6.09;100.00;101064.00;10579885;27;20486;-70
2022/12/18 09:05:20;;;;;;;18.02;10.75;;;;;;;6.08;100.00;101022.75;10578048;28;20039;-71
2022/12/18 09:10:21;;;;;;;20.15;11.75;;;;;;;6.70;100.00;101105.75;10581335;27;20031;-70
2022/12/18 09:15:22;;;;;;;21.65;12.18;;;;;;;6.05;100.00;100988.72;10588529;27;20573;-70
2022/12/18 09:20:23;;;;;;;21.05;11.82;;;;;;;6.58;100.00;101092.59;10574832;28;20043;-70
2022/12/18 09:25:23;;;;;;;24.05;12.10;;;;;;;6.29;100.00;101057.97;10557377;28;20065;-69
2022/12/18 09:30:24;;;;;;;19.52;11.50;;;;;;;5.88;100.00;100987.38;10555609;27;20130;-69
2022/12/18 09:35:25;;;;;;;20.08;10.50;;;;;;;6.53;100.00;101080.72;10573151;27;20046;-70
2022/12/18 09:40:31;;;;;;;21.13;11.40;;;;;;;6.59;100.00;101093.44;10568589;27;20040;-69
2022/12/18 09:45:42;;;;;;;18.58;10.75;;;;;;;6.17;100.00;101009.66;10566649;27;20585;-69
2022/12/18 09:50:44;;;;;;;18.33;11.10;;;;;;;6.60;100.00;101100.38;10582537;27;20039;-70
2022/12/18 09:55:47;;;;;;;21.13;11.52;;;;;;;6.14;100.00;101022.28;10620189;27;20046;-70
2022/12/18 10:00:51;;;;;;;18.08;11.30;;;;;;;6.59;100.00;101077.59;10623205;27;20150;-70
2022/12/18 10:06:07;;;;;;;19.53;10.53;;;;;;;6.88;100.00;101088.41;10622657;27;20123;-70
2022/12/18 10:11:28;;;;;;;22.92;11.80;;;;;;;6.98;100.00;101072.66;10622304;27;20039;-70
2022/12/18 10:16:50;;;;;;;20.30;11.30;;;;;;;7.01;100.00;101091.72;10623196;27;20039;-70
2022/12/18 10:22:14;;;;;;;23.75;12.20;;;;;;;6.93;100.00;101074.81;10621995;27;20042;-70
2022/12/18 10:27:18;;;;;;;;;;;;;;;7.01;100.00;101089.06;10622646;27;20039;-70
2022/12/18 10:32:24;;;;;;;;;;;;;;;7.11;100.00;101083.03;10622355;28;19920;-70
2022/12/18 10:37:28;;;;;;;18.20;10.75;;;;;;;6.39;100.00;100992.91;10612737;28;19962;-70
2022/12/18 10:42:29;;;;;;;19.57;11.17;;;;;;;7.02;100.00;101080.19;10568933;28;20139;-71
2022/12/18 10:47:29;;;;;;;18.33;10.88;;;;;;;6.96;100.00;101069.28;10597579;28;20581;-70
2022/12/18 10:52:30;;;;;;;18.67;11.32;;;;;;;6.97;100.00;101068.31;10576519;27;20044;-69
2022/12/18 10:57:34;;;;;;;19.35;11.10;;;;;;;6.91;100.00;101074.09;10579568;28;20035;-71
2022/12/18 11:02:37;;;;;;;684.10;512.00;;;;;;;6.63;100.00;101050.78;10584028;27;20491;-69
2022/12/18 11:07:49;;;;;;;58.00;34.30;;;;;;;6.62;100.00;101041.22;10586620;28;20380;-68
2022/12/18 11:12:50;;;;;;;26.15;15.65;;;;;;;6.17;100.00;100961.34;10585857;28;20035;-69
2022/12/18 11:17:52;;;;;;;25.00;13.35;;;;;;;6.72;100.00;101070.34;10586779;27;20103;-70
2022/12/18 11:22:59;;;;;;;24.48;12.85;;;;;;;6.59;100.00;101059.09;10586332;28;20040;-69
2022/12/18 11:28:05;;;;;;;29.15;16.25;;;;;;;6.79;100.00;101100.56;10629632;27;20474;-69
2022/12/18 11:33:19;;;;;;;28.15;14.38;;;;;;;6.32;100.00;101006.75;10628690;27;20082;-69
2022/12/18 11:38:48;;;;;;;23.90;11.70;;;;;;;6.84;100.00;101102.81;10628297;27;20240;-68
2022/12/18 11:44:13;;;;;;;34.15;23.25;;;;;;;6.74;100.00;101126.50;10623886;27;20039;-68
2022/12/18 11:49:26;;;;;;;43.22;22.75;;;;;;;6.64;100.00;101122.91;10628456;27;20047;-68
2022/12/18 11:54:27;;;;;;;28.20;16.75;;;;;;;6.69;100.00;101117.28;10627575;27;20402;-69
2022/12/18 11:59:43;;;;;;;63.90;49.47;;;;;;;6.35;100.00;101075.94;10626591;27;20062;-69
2022/12/18 12:04:59;;;;;;;30.30;17.83;;;;;;;6.52;100.00;101129.19;10626554;27;20031;-69
2022/12/18 12:10:24;;;;;;;24.52;14.75;;;;;;;6.60;100.00;101106.47;10627256;27;20099;-69
2022/12/18 12:15:43;;;;;;;26.70;16.02;;;;;;;6.62;100.00;101109.84;10608765;27;20126;-69
2022/12/18 12:20:58;;;;;;;29.92;15.43;;;;;;;6.51;100.00;101096.66;10626925;27;20126;-69
2022/12/18 12:26:08;;;;;;;22.55;13.45;;;;;;;6.56;100.00;101120.06;10626641;27;20031;-69
2022/12/18 12:31:37;;;;;;;21.38;12.35;;;;;;;6.53;100.00;101115.03;10626617;27;20054;-70
2022/12/18 12:36:51;;;;;;;26.48;12.18;;;;;;;5.88;100.00;101029.56;10625660;27;20046;-70
2022/12/18 12:47:22;;;;;;;22.80;11.60;;;;;;;6.48;100.00;101114.56;10601476;27;20062;-69
2022/12/18 12:52:57;;;;;;;24.67;11.85;;;;;;;6.57;100.00;101148.97;10625704;27;20043;-69
2022/12/18 12:58:39;;;;;;;38.90;18.30;;;;;;;6.09;100.00;101085.09;10624635;27;20150;-69
2022/12/18 13:04:05;;;;;;;30.05;18.13;;;;;;;6.50;100.00;101165.44;10523279;27;20171;-69
2022/12/18 13:09:06;;;;;;;34.67;25.50;;;;;;;6.15;100.00;101140.84;10625854;27;20145;-69
2022/12/18 13:14:21;;;;;;;38.92;27.08;;;;;;;6.26;100.00;101178.75;10623504;27;20126;-70
2022/12/18 13:19:26;;;;;;;21.77;13.27;;;;;;;6.18;100.00;101166.16;10624319;27;20510;-69
2022/12/18 13:24:30;;;;;;;;;;;;;;;6.33;100.00;101157.03;10606234;27;20037;-69
2022/12/18 13:29:41;;;;;;;21.63;11.93;;;;;;;6.16;100.00;101162.78;10624121;27;20426;-70
2022/12/18 13:34:42;;;;;;;24.02;12.48;;;;;;;6.11;100.00;101165.78;10624390;27;20085;-69
2022/12/18 13:39:43;;;;;;;23.00;11.98;;;;;;;5.03;100.00;100988.66;10611868;27;20069;-69
2022/12/18 13:44:44;;;;;;;20.42;10.35;;;;;;;6.06;100.00;101153.91;10589522;27;20036;-69
2022/12/18 13:49:46;;;;;;;20.50;11.73;;;;;;;5.95;100.00;101138.91;10575952;28;20059;-69
2022/12/18 13:54:55;;;;;;;20.85;10.63;;;;;;;5.92;100.00;101126.78;10578558;27;20055;-70
2022/12/18 13:59:57;;;;;;;24.92;11.43;;;;;;;5.45;100.00;101062.75;10580809;27;20035;-69
2022/12/18 14:04:57;;;;;;;17.58;9.90;;;;;;;6.01;100.00;101140.22;10560497;28;20125;-69
2022/12/18 14:10:01;;;;;;;27.48;11.88;;;;;;;5.56;100.00;101072.44;10571919;28;20032;-69
2022/12/18 14:15:03;;;;;;;25.50;11.25;;;;;;;5.93;100.00;101154.88;10573540;27;20554;-69
2022/12/18 14:20:15;;;;;;;18.45;10.60;;;;;;;5.95;100.00;101160.00;10561964;28;20046;-69
2022/12/18 14:25:18;;;;;;;21.20;10.85;;;;;;;5.99;100.00;101163.28;10597082;27;20043;-68
2022/12/18 14:30:23;;;;;;;20.23;10.85;;;;;;;5.30;100.00;101052.53;10585724;28;20047;-69
2022/12/18 14:35:24;;;;;;;20.75;10.15;;;;;;;5.89;100.00;101148.13;10592611;28;20068;-69
2022/12/18 14:40:25;;;;;;;21.40;11.02;;;;;;;5.84;100.00;101145.00;10601464;28;20107;-68
2022/12/18 14:45:44;;;;;;;18.15;10.50;;;;;;;5.88;100.00;101166.69;10606880;28;20039;-69
2022/12/18 14:50:54;;;;;;;20.40;10.85;;;;;;;5.78;100.00;101166.56;10584648;28;20534;-70
2022/12/18 14:55:55;;;;;;;15.48;9.60;;;;;;;5.76;100.00;101181.66;10589949;28;20518;-68
2022/12/18 15:00:56;;;;;;;19.77;11.30;;;;;;;5.85;100.00;101190.66;10560234;28;20039;-68
2022/12/18 15:06:24;;;;;;;19.27;11.23;;;;;;;5.89;100.00;101178.91;10604683;28;20050;-69
2022/12/18 15:11:33;;;;;;;22.88;11.90;;;;;;;5.89;100.00;101185.03;10621937;28;20551;-69
2022/12/18 15:16:34;;;;;;;18.45;10.80;;;;;;;5.98;100.00;101204.59;10621097;28;20036;-68
2022/12/18 15:21:35;;;;;;;20.17;12.00;;;;;;;5.73;100.00;101171.34;10620927;28;20039;-68
2022/12/18 15:26:38;;;;;;;25.70;13.15;;;;;;;5.98;100.00;101219.59;10620530;28;20043;-68
2022/12/18 15:31:39;;;;;;;25.67;12.80;;;;;;;5.05;100.00;101054.38;10621064;28;20536;-69
2022/12/18 15:36:40;;;;;;;22.42;11.35;;;;;;;5.99;100.00;101205.47;10606254;27;20049;-69
2022/12/18 15:43:33;;;;;;;24.92;14.32;;;;;;;5.87;100.00;101208.03;10606376;27;20415;-67
2022/12/18 15:47:02;;;;;;;28.98;15.18;;;;;;;5.69;100.00;101176.00;10600579;27;20061;-69
2022/12/18 15:52:03;;;;;;;26.42;15.82;;;;;;;5.49;100.00;101139.75;10621719;27;20045;-67
2022/12/18 16:02:23;;;;;;;27.50;15.68;;;;;;;5.60;100.00;101150.34;10582367;27;20655;-67
2022/12/18 16:07:24;;;;;;;29.25;15.50;;;;;;;6.04;100.00;101241.09;10584322;27;20032;-67
2022/12/18 16:12:25;;;;;;;27.52;15.02;;;;;;;5.92;100.00;101244.59;10595784;27;20503;-68
2022/12/18 16:17:26;;;;;;;24.75;14.50;;;;;;;5.35;100.00;101158.38;10589507;27;20051;-68
2022/12/18 16:22:30;;;;;;;28.45;15.55;;;;;;;5.70;100.00;101217.22;10584503;27;20043;-67
2022/12/18 16:27:31;;;;;;;25.05;14.32;;;;;;;5.43;100.00;101163.94;10574857;27;20400;-67
2022/12/18 16:32:32;;;;;;;30.55;17.90;;;;;;;5.67;100.00;101203.44;10584255;28;20039;-68
2022/12/18 16:37:32;;;;;;;34.75;18.27;;;;;;;5.83;100.00;101222.41;10611221;27;20452;-68
2022/12/18 16:42:33;;;;;;;29.77;17.63;;;;;;;5.33;100.00;101134.81;10607137;27;20067;-67
2022/12/18 16:47:34;;;;;;;27.42;16.85;;;;;;;5.79;100.00;101217.50;10625040;27;20055;-67
2022/12/18 16:52:35;;;;;;;30.85;17.27;;;;;;;5.33;100.00;101153.25;10625660;27;20065;-67
2022/12/18 16:57:36;;;;;;;29.77;16.83;;;;;;;5.64;100.00;101214.22;10625447;27;20403;-67
2022/12/18 17:02:38;;;;;;;32.65;18.33;;;;;;;5.64;100.00;101228.22;10599088;27;20040;-69
2022/12/18 17:07:38;;;;;;;29.83;17.30;;;;;;;5.41;100.00;101193.03;10595670;27;20069;-68
2022/12/18 17:12:39;;;;;;;31.38;17.08;;;;;;;5.23;100.00;101168.03;10600063;27;20421;-67
2022/12/18 17:17:40;;;;;;;30.63;16.60;;;;;;;5.44;100.00;101205.13;10624367;27;20035;-68
2022/12/18 17:22:41;;;;;;;32.50;15.93;;;;;;;5.43;100.00;101221.91;10624450;27;20039;-68
2022/12/18 17:27:41;;;;;;;27.58;14.93;;;;;;;5.42;100.00;101221.06;10624156;27;20122;-68
2022/12/18 17:32:42;;;;;;;25.40;14.38;;;;;;;5.33;100.00;101228.81;10623906;27;20122;-68
2022/12/18 17:37:43;;;;;;;40.22;14.77;;;;;;;5.09;100.00;101240.19;10623659;27;20039;-68
2022/12/18 17:42:44;;;;;;;28.23;15.65;;;;;;;5.01;100.00;101240.72;10623575;27;20561;-68
2022/12/18 17:47:45;;;;;;;25.63;14.88;;;;;;;4.99;100.00;101236.50;10622671;27;20510;-68
2022/12/18 17:52:45;;;;;;;26.58;15.60;;;;;;;4.33;100.00;101143.81;10622448;27;20107;-68
2022/12/18 17:57:46;;;;;;;26.05;14.68;;;;;;;4.84;100.00;101254.25;10622392;27;20118;-68
2022/12/18 18:02:47;;;;;;;54.85;15.60;;;;;;;4.68;100.00;101235.22;10623279;27;20486;-68
2022/12/18 18:07:48;;;;;;;29.80;13.55;;;;;;;4.64;100.00;101268.00;10622636;27;20622;-68
2022/12/18 18:18:08;;;;;;;91.85;16.95;;;;;;;4.33;100.00;101254.31;10621849;27;20119;-68
2022/12/18 18:23:10;;;;;;;46.55;11.77;;;;;;;4.21;100.00;101240.19;10621693;27;20070;-68
2022/12/18 18:28:11;;;;;;;51.55;11.50;;;;;;;3.40;100.00;101095.91;10622642;27;20458;-69
2022/12/18 18:33:12;;;;;;;21.73;11.25;;;;;;;4.31;100.00;101246.53;10622683;28;20049;-69
2022/12/18 18:38:12;;;;;;;57.22;10.25;;;;;;;4.30;100.00;101246.63;10621978;28;20574;-69
2022/12/18 18:43:13;;;;;;;41.70;10.85;;;;;;;4.12;100.00;101210.13;10622883;28;20629;-69
2022/12/18 18:48:14;;;;;;;65.40;10.60;;;;;;;4.28;100.00;101225.69;10622026;28;20512;-69
2022/12/18 18:53:15;;;;;;;76.22;11.45;;;;;;;4.44;100.00;101237.78;10603007;28;20096;-69
2022/12/18 18:58:17;;;;;;;125.63;13.35;;;;;;;4.48;100.00;101220.84;10620903;28;20126;-69
2022/12/18 19:03:19;;;;;;;70.93;11.82;;;;;;;4.07;100.00;101153.56;10621615;28;20080;-69
2022/12/18 19:08:22;;;;;;;110.88;12.98;;;;;;;4.48;100.00;101226.94;10621593;28;20091;-69
2022/12/18 19:13:25;;;;;;;102.85;12.43;;;;;;;4.42;100.00;101230.00;10614963;27;20524;-69
2022/12/18 19:18:26;;;;;;;28.85;9.32;;;;;;;4.23;100.00;101219.06;10628748;27;20039;-69
2022/12/18 19:23:27;;;;;;;86.97;10.32;;;;;;;4.19;100.00;101228.09;10629649;27;20042;-69
2022/12/18 19:28:28;;;;;;;124.43;10.80;;;;;;;3.57;100.00;101156.03;10628372;27;20043;-70
2022/12/18 19:33:33;;;;;;;28.77;8.60;;;;;;;3.43;100.00;101145.59;10628928;27;20046;-69
2022/12/18 19:38:33;;;;;;;;;;;;;;;4.24;100.00;101258.41;10628693;27;20101;-69
2022/12/18 19:43:38;;;;;;;80.20;9.57;;;;;;;4.04;100.00;101254.50;10609828;27;19916;-68
2022/12/18 19:48:39;;;;;;;18.38;7.90;;;;;;;3.91;100.00;101252.81;10604354;27;20059;-68
2022/12/18 19:53:40;;;;;;;114.18;9.27;;;;;;;3.66;100.00;101228.16;10593813;27;20039;-69
2022/12/18 19:58:42;;;;;;;34.38;7.70;;;;;;;3.58;100.00;101231.28;10584844;28;20039;-70
2022/12/18 20:03:43;;;;;;;26.02;6.90;;;;;;;3.61;100.00;101259.13;10585078;28;20043;-70
2022/12/18 20:08:44;;;;;;;182.63;9.32;;;;;;;2.94;100.00;101149.69;10584827;28;20495;-69
2022/12/18 20:13:45;;;;;;;93.72;8.10;;;;;;;2.92;100.00;101161.22;10584573;28;20057;-69
2022/12/18 20:18:46;;;;;;;122.32;8.98;;;;;;;3.29;100.00;101219.22;10583683;28;20046;-70
2022/12/18 20:23:47;;;;;;;82.65;8.73;;;;;;;3.46;100.00;101247.84;10596498;27;20054;-70
2022/12/18 20:28:48;;;;;;;107.60;8.52;;;;;;;3.06;100.00;101184.78;10612014;27;20103;-69
2022/12/18 20:33:49;;;;;;;62.08;8.02;;;;;;;2.81;100.00;101147.94;10594532;27;20046;-69
2022/12/18 20:38:52;;;;;;;99.63;6.70;;;;;;;3.31;100.00;101249.69;10626263;27;20129;-69
2022/12/18 20:43:53;;;;;;;66.23;6.40;;;;;;;3.28;100.00;101243.78;10625767;27;20047;-69
2022/12/18 20:48:55;;;;;;;64.00;6.45;;;;;;;3.19;100.00;101218.97;10626003;27;20363;-69
2022/12/18 20:53:58;;;;;;;43.58;5.90;;;;;;;3.17;100.00;101226.97;10625554;27;20095;-69
2022/12/18 20:59:00;;;;;;;22.67;5.47;;;;;;;3.07;100.00;101225.00;10624600;27;20604;-69
2022/12/18 21:04:00;;;;;;;26.17;4.53;;;;;;;3.05;100.00;101217.25;10606781;27;20039;-69
2022/12/18 21:09:01;;;;;;;42.97;4.97;;;;;;;3.00;100.00;101215.84;10625497;27;20114;-69
2022/12/18 21:14:04;;;;;;;107.03;5.78;;;;;;;2.96;100.00;101216.03;10624052;27;20046;-69
2022/12/18 21:19:06;;;;;;;186.25;8.02;;;;;;;1.95;100.00;101062.41;10612111;27;20042;-69
2022/12/18 21:24:08;;;;;;;253.02;9.65;;;;;;;2.35;100.00;101140.34;10623215;27;20047;-69
2022/12/18 21:29:18;;;;;;;132.00;8.55;;;;;;;2.86;100.00;101228.06;10624091;27;20047;-69
2022/12/18 21:34:25;;;;;;;348.48;10.63;;;;;;;2.21;100.00;101152.53;10624018;27;20043;-68
2022/12/18 21:39:28;;;;;;;125.65;9.20;;;;;;;2.76;100.00;101241.84;10623475;27;20042;-69
2022/12/18 21:44:29;;;;;;;100.07;7.45;;;;;;;2.42;100.00;101175.72;10606267;27;20084;-69
2022/12/18 21:49:30;;;;;;;129.30;6.68;;;;;;;2.90;100.00;101245.31;10582859;27;20055;-69
2022/12/18 21:54:31;;;;;;;18.83;4.78;;;;;;;2.32;100.00;101140.53;10592625;27;20572;-69
2022/12/18 21:59:34;;;;;;;25.85;5.80;;;;;;;3.07;100.00;101246.84;10575712;28;20058;-70
2022/12/18 22:04:35;;;;;;;28.80;5.78;;;;;;;3.09;100.00;101257.25;10556505;27;20093;-69
2022/12/18 22:09:36;;;;;;;7.40;5.72;;;;;;;3.03;100.00;101261.13;10580041;27;20040;-69
2022/12/18 22:14:37;;;;;;;10.85;5.95;;;;;;;3.17;100.00;101257.59;10576473;28;20039;-69
2022/12/18 22:19:38;;;;;;;9.98;5.57;;;;;;;3.30;100.00;101278.69;10578186;27;20043;-69
2022/12/18 22:24:38;;;;;;;7.32;5.20;;;;;;;3.18;100.00;101262.75;10579626;27;20066;-69
2022/12/18 22:34:59;;;;;;;6.72;4.50;;;;;;;3.32;100.00;101261.03;10573836;28;20109;-69
2022/12/18 22:40:00;;;;;;;6.28;4.40;;;;;;;3.37;100.00;101274.72;10570973;28;20027;-69
2022/12/18 22:45:01;;;;;;;6.75;4.72;;;;;;;3.31;100.00;101254.09;10579022;28;20038;-70
2022/12/18 22:50:02;;;;;;;5.43;4.22;;;;;;;3.37;100.00;101266.84;10583078;28;20047;-70
2022/12/18 22:55:03;;;;;;;5.63;4.20;;;;;;;3.51;100.00;101282.56;10582758;28;20046;-70
2022/12/18 23:00:05;;;;;;;6.20;3.97;;;;;;;3.37;100.00;101254.53;10587813;27;20043;-70
2022/12/18 23:05:06;;;;;;;5.47;4.43;;;;;;;3.10;100.00;101207.28;10587196;27;20122;-70
2022/12/18 23:10:07;;;;;;;8.23;4.80;;;;;;;3.64;100.00;101283.44;10558324;28;20044;-69
2022/12/18 23:15:08;;;;;;;5.18;3.72;;;;;;;3.60;100.00;101267.97;10582177;28;20465;-69